Time;durP1;ratioP1;P1;durP2;ratioP2;P2;SDS_P1;SDS_P2;PMS_P1;PMS_P2;Temp;Humidity;BMP_temperature;BMP_pressure;BME280_temperature;BME280_humidity;BME280_pressure;Samples;Min_cycle;Max_cycle;Signal;HPM_P1;HPM_P2
2022/01/15 00:00:47;;;;;;;32.57;19.60;;;3.20;99.90;;;3.76;100.00;-19854.88;5090895;28;20234;-65
2022/01/15 00:03:15;;;;;;;32.67;18.50;;;3.20;99.90;;;3.64;100.00;-19850.94;5090453;28;20238;-65
2022/01/15 00:05:43;;;;;;;32.20;18.53;;;3.20;99.90;;;3.62;100.00;-19850.25;5090826;28;20210;-63
2022/01/15 00:08:11;;;;;;;28.43;17.43;;;3.10;99.90;;;3.64;100.00;-19850.94;5090431;28;20314;-64
2022/01/15 00:10:39;;;;;;;29.07;18.10;;;3.10;99.90;;;3.61;100.00;-19849.91;5090217;28;20732;-64
2022/01/15 00:13:14;;;;;;;29.27;18.03;;;3.10;99.90;;;3.68;100.00;-19852.13;5090344;28;20306;-63
2022/01/15 00:15:49;;;;;;;30.10;17.73;;;3.10;99.90;;;3.77;100.00;-19855.03;5090776;28;20246;-63
2022/01/15 00:18:18;;;;;;;31.00;18.43;;;3.10;99.90;;;3.72;100.00;-19853.69;5090492;28;20740;-64
2022/01/15 00:20:46;;;;;;;29.27;18.67;;;3.10;99.90;;;3.73;100.00;-19853.84;5091333;28;20259;-64
2022/01/15 00:23:14;;;;;;;30.20;18.03;;;3.10;99.90;;;3.72;100.00;-19853.50;5090402;28;20328;-64
2022/01/15 00:25:42;;;;;;;30.30;18.53;;;3.00;99.90;;;3.58;100.00;-19848.91;5090256;28;20227;-64
2022/01/15 00:28:11;;;;;;;34.90;20.70;;;3.00;99.90;;;3.71;100.00;-19853.16;5090366;28;20314;-64
2022/01/15 00:30:39;;;;;;;29.60;19.47;;;3.00;99.90;;;3.77;100.00;-19855.22;5090165;28;20226;-64
2022/01/15 00:33:07;;;;;;;30.40;18.80;;;3.00;99.90;;;3.83;100.00;-19857.09;5090779;28;20211;-64
2022/01/15 00:35:37;;;;;;;33.27;19.93;;;3.10;99.90;;;3.76;100.00;-19854.88;5090814;28;20734;-65
2022/01/15 00:38:05;;;;;;;32.53;18.63;;;3.10;99.90;;;3.98;100.00;-19862.22;5090403;28;20290;-66
2022/01/15 00:40:33;;;;;;;33.73;19.03;;;3.10;99.90;;;3.81;100.00;-19856.41;5089969;28;20315;-64
2022/01/15 00:43:01;;;;;;;32.53;19.63;;;3.20;99.90;;;3.88;100.00;-19858.81;5090269;28;20313;-65
2022/01/15 00:45:33;;;;;;;34.83;19.93;;;3.20;99.90;;;3.96;100.00;-19861.53;5090451;28;20631;-64
2022/01/15 00:48:02;;;;;;;35.60;20.30;;;3.20;99.90;;;4.07;100.00;-19865.47;5090692;28;20206;-65
2022/01/15 00:50:30;;;;;;;31.40;18.87;;;3.30;99.90;;;4.18;100.00;-19869.22;5090954;28;20231;-64
2022/01/15 00:52:58;;;;;;;32.43;19.40;;;3.40;99.90;;;4.20;100.00;-19869.75;5093608;28;20311;-64
2022/01/15 00:55:26;;;;;;;34.37;19.30;;;3.40;99.90;;;4.20;100.00;-19869.91;5093564;28;20307;-64
2022/01/15 00:57:54;;;;;;;33.03;18.93;;;3.40;99.90;;;4.18;100.00;-19869.22;5093980;28;20226;-65
2022/01/15 01:00:25;;;;;;;29.03;17.63;;;3.40;99.90;;;4.16;100.00;-19868.53;5093700;28;20256;-65
2022/01/15 01:02:55;;;;;;;30.37;18.73;;;3.40;99.90;;;4.11;100.00;-19866.84;5093559;28;20207;-64
2022/01/15 01:05:24;;;;;;;26.57;16.70;;;3.40;99.90;;;4.05;100.00;-19864.78;5094215;28;20191;-65
2022/01/15 01:07:52;;;;;;;28.53;17.87;;;3.40;99.90;;;4.30;100.00;-19873.16;5093658;28;20230;-64
2022/01/15 01:13:40;;;;;;;27.40;17.43;;;3.30;99.90;;;3.85;100.00;-19857.94;5093133;28;20233;-63
2022/01/15 01:22:30;;;;;;;26.77;17.30;;;3.00;99.90;;;3.67;100.00;-19851.78;5093459;28;20251;-64
2022/01/15 01:24:42;;;;;;;28.13;17.70;;;3.00;99.90;;;3.63;100.00;-19850.44;5093037;28;20596;-67
2022/01/15 01:27:16;;;;;;;28.17;17.73;;;3.00;99.90;;;3.61;100.00;-19849.75;5093518;28;20310;-63
2022/01/15 01:29:55;;;;;;;29.97;17.80;;;2.90;99.90;;;3.52;100.00;-19846.66;5094031;28;20195;-64
2022/01/15 01:32:39;;;;;;;28.17;18.50;;;2.90;99.90;;;3.50;100.00;-19846.00;5092681;28;20233;-64
2022/01/15 01:35:14;;;;;;;26.93;16.60;;;2.80;99.90;;;3.18;100.00;-19835.22;5092849;28;20225;-65
2022/01/15 01:37:46;;;;;;;24.80;16.40;;;2.70;99.90;;;3.11;100.00;-19832.81;5093056;28;20388;-65
2022/01/15 01:40:20;;;;;;;27.30;17.13;;;2.60;99.90;;;3.16;100.00;-19834.53;5092964;28;20249;-64
2022/01/15 01:43:01;;;;;;;30.03;18.53;;;2.50;99.90;;;3.05;100.00;-19830.59;5093048;28;20349;-64
2022/01/15 01:45:29;;;;;;;26.83;16.93;;;2.50;99.90;;;3.07;100.00;-19831.44;5092932;28;20250;-64
2022/01/15 01:47:57;;;;;;;26.70;16.30;;;2.40;99.90;;;2.94;100.00;-19827.00;5092778;28;20852;-64
2022/01/15 01:50:30;;;;;;;27.13;16.53;;;2.40;99.90;;;2.84;100.00;-19823.41;5091882;28;20310;-64
2022/01/15 01:53:00;;;;;;;29.40;17.70;;;2.30;99.90;;;2.78;100.00;-19821.38;5072474;28;20252;-64
2022/01/15 01:55:29;;;;;;;27.43;16.97;;;2.20;99.90;;;2.70;100.00;-19818.63;5078955;28;20255;-63
2022/01/15 01:58:00;;;;;;;28.77;18.30;;;2.20;99.90;;;2.73;100.00;-19819.81;5092220;28;20253;-64
2022/01/15 02:00:30;;;;;;;28.17;17.90;;;2.10;99.90;;;2.64;100.00;-19816.59;5092365;28;20308;-64
2022/01/15 02:02:59;;;;;;;27.67;17.67;;;2.10;99.90;;;2.59;100.00;-19815.03;5092590;28;20885;-63
2022/01/15 02:05:30;;;;;;;30.20;18.37;;;2.10;99.90;;;2.64;100.00;-19816.59;5093055;28;20204;-63
2022/01/15 02:07:58;;;;;;;32.50;18.33;;;2.00;99.90;;;2.54;100.00;-19813.16;5092704;28;20241;-63
2022/01/15 02:10:27;;;;;;;30.43;18.00;;;2.00;99.90;;;2.61;100.00;-19815.56;5092248;28;20249;-64
2022/01/15 02:12:55;;;;;;;31.83;18.33;;;2.00;99.90;;;2.69;100.00;-19818.28;5092579;28;20230;-63
2022/01/15 02:15:24;;;;;;;30.67;18.37;;;2.00;99.90;;;2.66;100.00;-19817.44;5092495;28;20255;-64
2022/01/15 02:17:53;;;;;;;29.30;18.40;;;2.00;99.90;;;2.75;100.00;-19820.34;5092634;28;20209;-64
2022/01/15 02:23:33;;;;;;;31.00;18.90;;;2.00;99.90;;;2.62;100.00;-19816.06;5092700;28;20739;-63
2022/01/15 02:26:05;;;;;;;31.47;19.43;;;1.90;99.90;;;2.53;100.00;-19812.81;5091917;28;20316;-63
2022/01/15 02:28:36;;;;;;;27.63;16.97;;;1.90;99.90;;;2.39;100.00;-19808.38;5092255;28;20235;-64
2022/01/15 02:31:07;;;;;;;27.83;17.63;;;1.90;99.90;;;2.36;100.00;-19807.19;5092056;28;20232;-64
2022/01/15 02:33:36;;;;;;;30.00;16.80;;;1.80;99.90;;;2.36;100.00;-19807.34;5109246;28;20223;-64
2022/01/15 02:36:11;;;;;;;31.20;18.50;;;1.80;99.90;;;2.39;100.00;-19808.38;5112579;28;20300;-62
2022/01/15 02:38:41;;;;;;;29.50;18.03;;;1.80;99.90;;;2.31;100.00;-19805.47;5113230;28;20275;-64
2022/01/15 02:41:10;;;;;;;30.63;18.07;;;1.80;99.90;;;2.42;100.00;-19809.41;5112092;28;20668;-63
2022/01/15 02:43:39;;;;;;;31.20;17.83;;;1.80;99.90;;;2.63;100.00;-19816.25;5112173;28;20230;-64
2022/01/15 02:46:22;;;;;;;35.37;20.57;;;1.90;99.90;;;2.63;100.00;-19816.41;5111965;27;20255;-65
2022/01/15 02:48:53;;;;;;;31.67;17.23;;;2.00;99.90;;;2.54;100.00;-19813.34;5112278;28;20710;-64
2022/01/15 02:51:25;;;;;;;27.60;17.60;;;2.00;99.90;;;2.45;100.00;-19810.25;5102968;28;20249;-64
2022/01/15 02:53:55;;;;;;;32.67;19.30;;;1.90;99.90;;;2.34;100.00;-19806.66;5092030;28;20196;-64
2022/01/15 02:56:25;;;;;;;31.53;18.80;;;1.90;99.90;;;2.29;100.00;-19804.78;5111440;28;20242;-64
2022/01/15 02:58:54;;;;;;;31.80;20.53;;;1.80;99.90;;;2.20;100.00;-19801.69;5111967;28;20234;-64
2022/01/15 03:01:23;;;;;;;32.10;20.83;;;1.70;99.90;;;2.15;100.00;-19800.00;5111782;28;20302;-63
2022/01/15 03:03:52;;;;;;;30.83;19.93;;;1.70;99.90;;;2.07;100.00;-19797.25;5112562;28;20223;-64
2022/01/15 03:06:22;;;;;;;32.53;20.07;;;1.60;99.90;;;2.07;100.00;-19797.25;5111921;28;20702;-64
2022/01/15 03:08:53;;;;;;;32.47;20.37;;;1.50;99.90;;;2.10;100.00;-19798.47;5112205;28;20187;-63
2022/01/15 03:11:22;;;;;;;31.97;19.63;;;1.50;99.90;;;2.31;100.00;-19805.47;5112466;28;20235;-63
2022/01/15 03:13:51;;;;;;;36.50;23.00;;;1.60;99.90;;;2.32;100.00;-19805.81;5111387;28;20255;-63
2022/01/15 03:16:22;;;;;;;35.40;21.83;;;1.60;99.90;;;2.32;100.00;-19805.97;5111811;28;20243;-64
2022/01/15 03:18:51;;;;;;;37.60;22.87;;;1.70;99.90;;;2.32;100.00;-19805.97;5111973;28;20719;-64
2022/01/15 03:21:19;;;;;;;37.13;23.00;;;1.70;99.90;;;2.20;100.00;-19801.88;5111736;28;20223;-64
2022/01/15 03:23:48;;;;;;;35.93;22.83;;;1.70;99.90;;;2.23;100.00;-19802.91;5111792;28;20204;-64
2022/01/15 03:26:16;;;;;;;36.33;24.43;;;1.60;99.90;;;2.11;100.00;-19798.81;5111451;28;20809;-64
2022/01/15 03:28:45;;;;;;;38.33;25.20;;;1.60;99.90;;;2.03;100.00;-19796.06;5111460;28;20250;-64
2022/01/15 03:31:13;;;;;;;34.20;23.23;;;1.60;99.90;;;2.01;100.00;-19795.22;5111419;28;20235;-64
2022/01/15 03:33:41;;;;;;;39.03;25.07;;;1.50;99.90;;;1.99;100.00;-19794.69;5111192;28;20226;-63
2022/01/15 03:36:09;;;;;;;35.50;23.83;;;1.50;99.90;;;2.02;100.00;-19795.56;5111347;28;20195;-63
2022/01/15 03:38:38;;;;;;;34.37;22.80;;;1.50;99.90;;;1.93;100.00;-19792.66;5111833;28;20245;-63
2022/01/15 03:41:07;;;;;;;34.93;22.33;;;1.40;99.90;;;1.89;100.00;-19791.09;5110893;28;20231;-64
2022/01/15 03:43:35;;;;;;;34.10;21.10;;;1.40;99.90;;;1.89;100.00;-19791.28;5110968;28;20227;-64
2022/01/15 03:46:04;;;;;;;31.03;19.63;;;1.40;99.90;;;1.85;100.00;-19789.91;5111278;28;20219;-64
2022/01/15 03:48:32;;;;;;;33.67;20.47;;;1.30;99.90;;;1.97;100.00;-19794.00;5111248;28;20223;-64
2022/01/15 03:51:00;;;;;;;37.47;20.50;;;1.30;99.90;;;2.04;100.00;-19796.41;5110530;28;20218;-62
2022/01/15 03:53:28;;;;;;;34.10;21.60;;;1.40;99.90;;;2.03;100.00;-19796.06;5111908;28;20310;-66
2022/01/15 03:55:56;;;;;;;36.10;21.90;;;1.40;99.90;;;1.97;100.00;-19793.84;5110893;28;20315;-63
2022/01/15 03:58:25;;;;;;;35.10;23.13;;;1.40;99.90;;;2.10;100.00;-19798.47;5111074;28;20231;-64
2022/01/15 04:00:54;;;;;;;37.10;22.43;;;1.40;99.90;;;2.07;100.00;-19797.25;5110999;28;20302;-63
2022/01/15 04:03:22;;;;;;;33.87;21.33;;;1.40;99.90;;;2.07;100.00;-19797.25;5111257;28;20273;-64
2022/01/15 04:05:50;;;;;;;34.80;21.07;;;1.40;99.90;;;2.14;100.00;-19799.81;5111094;28;20785;-64
2022/01/15 04:08:18;;;;;;;33.67;21.87;;;1.40;99.90;;;2.07;100.00;-19797.44;5111489;28;20672;-64
2022/01/15 04:10:46;;;;;;;39.13;22.63;;;1.50;99.90;;;2.09;100.00;-19798.13;5110114;28;20298;-63
2022/01/15 04:13:15;;;;;;;37.07;24.50;;;1.40;99.90;;;2.12;100.00;-19799.16;5109612;28;20236;-64
2022/01/15 04:15:50;;;;;;;40.17;26.10;;;1.40;99.90;;;2.20;100.00;-19801.69;5110123;28;20253;-64
2022/01/15 04:18:20;;;;;;;38.20;23.90;;;1.40;99.90;;;2.22;100.00;-19802.56;5111109;28;20245;-64
2022/01/15 04:20:48;;;;;;;37.60;26.33;;;1.50;99.90;;;2.05;100.00;-19796.56;5111708;28;20332;-64
2022/01/15 04:23:16;;;;;;;36.37;23.73;;;1.50;99.90;;;2.09;100.00;-19798.13;5110927;28;20215;-65
2022/01/15 04:25:44;;;;;;;37.57;23.73;;;1.50;99.90;;;2.17;100.00;-19800.84;5110552;28;20257;-65
2022/01/15 04:28:12;;;;;;;43.67;26.37;;;1.50;99.90;;;2.19;100.00;-19801.38;5114895;28;20302;-64
2022/01/15 04:30:46;;;;;;;37.53;24.03;;;1.50;99.90;;;2.27;100.00;-19804.09;5114884;28;20245;-64
2022/01/15 04:33:16;;;;;;;34.50;21.60;;;1.50;99.90;;;2.20;100.00;-19801.88;5114862;28;20645;-63
2022/01/15 04:35:44;;;;;;;30.60;19.37;;;1.50;99.90;;;2.26;100.00;-19803.75;5115505;28;20290;-63
2022/01/15 04:38:13;;;;;;;31.93;19.40;;;1.60;99.90;;;2.29;100.00;-19804.97;5114681;28;20250;-63
2022/01/15 04:40:41;;;;;;;31.20;18.97;;;1.60;99.90;;;2.22;100.00;-19802.56;5114424;28;20246;-62
2022/01/15 04:43:10;;;;;;;33.97;19.50;;;1.60;99.90;;;2.16;100.00;-19800.34;5114377;28;20223;-63
2022/01/15 04:45:38;;;;;;;31.90;18.50;;;1.50;99.90;;;2.14;100.00;-19799.66;5114673;28;20247;-62
2022/01/15 04:48:06;;;;;;;33.97;20.03;;;1.50;99.90;;;2.14;100.00;-19799.66;5114400;28;20662;-63
2022/01/15 04:50:36;;;;;;;32.37;19.03;;;1.60;99.90;;;2.14;100.00;-19799.81;5115521;28;20284;-64
2022/01/15 04:53:04;;;;;;;35.37;20.73;;;1.50;99.90;;;2.09;100.00;-19798.13;5114353;28;20330;-63
2022/01/15 04:55:33;;;;;;;33.40;20.53;;;1.50;99.90;;;2.02;100.00;-19795.72;5114352;28;20246;-63
2022/01/15 04:58:01;;;;;;;31.33;19.20;;;1.50;99.90;;;1.92;100.00;-19792.31;5114369;28;20219;-63
2022/01/15 05:00:29;;;;;;;31.47;19.20;;;1.40;99.90;;;1.91;100.00;-19791.97;5114315;28;20221;-64
2022/01/15 05:02:58;;;;;;;31.07;18.97;;;1.40;99.90;;;1.98;100.00;-19794.34;5114391;28;20196;-64
2022/01/15 05:05:27;;;;;;;33.73;19.50;;;1.40;99.90;;;1.94;100.00;-19793.00;5114914;28;20199;-64
2022/01/15 05:07:57;;;;;;;33.73;20.00;;;1.40;99.90;;;2.02;100.00;-19795.72;5114092;28;20310;-64
2022/01/15 05:10:28;;;;;;;33.00;20.50;;;1.40;99.90;;;2.05;100.00;-19796.75;5114004;28;20762;-63
2022/01/15 05:12:58;;;;;;;35.53;19.73;;;1.40;99.90;;;2.09;100.00;-19797.94;5114036;28;20255;-63
2022/01/15 05:15:26;;;;;;;32.87;19.53;;;1.40;99.90;;;2.12;100.00;-19798.97;5114112;27;20697;-63
2022/01/15 05:17:55;;;;;;;35.63;21.40;;;1.40;99.90;;;2.16;100.00;-19800.34;5113938;28;20863;-63
2022/01/15 05:20:23;;;;;;;36.73;22.27;;;1.40;99.90;;;2.17;100.00;-19800.69;5114212;28;20294;-64
2022/01/15 05:22:51;;;;;;;36.93;20.83;;;1.50;99.90;;;2.22;100.00;-19802.38;5113673;28;20244;-64
2022/01/15 05:25:20;;;;;;;36.77;21.20;;;1.50;99.90;;;2.26;100.00;-19803.75;5113745;27;20223;-63
2022/01/15 05:27:51;;;;;;;38.03;22.87;;;1.50;99.90;;;2.21;100.00;-19802.06;5113824;28;20235;-64
2022/01/15 05:30:19;;;;;;;39.10;23.73;;;1.60;99.90;;;2.22;100.00;-19802.56;5113972;28;20250;-64
2022/01/15 05:32:47;;;;;;;40.77;25.07;;;1.60;99.90;;;2.28;100.00;-19804.59;5114302;28;20314;-63
2022/01/15 05:35:15;;;;;;;43.77;24.97;;;1.60;99.90;;;2.35;100.00;-19806.84;5113850;28;20253;-65
2022/01/15 05:37:43;;;;;;;40.10;23.90;;;1.70;99.90;;;2.52;100.00;-19812.47;5113346;28;20249;-64
2022/01/15 05:40:13;;;;;;;35.80;21.33;;;1.80;99.90;;;2.59;100.00;-19815.03;5113278;28;20309;-63
2022/01/15 05:42:42;;;;;;;34.00;19.67;;;1.80;99.90;;;2.66;100.00;-19817.25;5113528;28;20224;-63
2022/01/15 05:45:12;;;;;;;35.63;19.57;;;1.90;99.90;;;2.58;100.00;-19814.53;5112756;28;20626;-64
2022/01/15 05:47:41;;;;;;;28.60;17.77;;;1.90;99.90;;;2.54;100.00;-19813.16;5114116;28;20235;-64
2022/01/15 05:50:11;;;;;;;43.37;20.93;;;1.90;99.90;;;2.50;100.00;-19812.13;5113206;28;20307;-63
2022/01/15 05:52:39;;;;;;;42.77;17.87;;;1.90;99.90;;;2.50;100.00;-19811.97;5092942;28;20307;-64
2022/01/15 05:55:08;;;;;;;30.53;19.60;;;1.90;99.90;;;2.61;100.00;-19815.56;5096771;28;20582;-64
2022/01/15 05:57:37;;;;;;;32.50;18.33;;;1.90;99.90;;;2.72;100.00;-19819.31;5113305;28;20303;-65
2022/01/15 06:00:09;;;;;;;31.10;18.63;;;2.00;99.90;;;2.71;100.00;-19818.97;5112931;28;20632;-65
2022/01/15 06:02:38;;;;;;;43.70;19.90;;;2.00;99.90;;;2.64;100.00;-19816.75;5113882;28;20227;-63
2022/01/15 06:05:06;;;;;;;90.33;22.47;;;2.00;99.90;;;2.68;100.00;-19817.94;5112781;28;20321;-63
2022/01/15 06:07:34;;;;;;;35.67;20.07;;;2.00;99.90;;;2.77;100.00;-19821.03;5113025;28;20227;-64
2022/01/15 06:10:03;;;;;;;34.23;20.87;;;2.00;99.90;;;2.84;100.00;-19823.41;5112608;28;20280;-63
2022/01/15 06:12:41;;;;;;;31.40;19.93;;;2.10;99.90;;;2.95;100.00;-19827.19;5112800;28;20322;-64
2022/01/15 06:15:12;;;;;;;35.57;22.13;;;2.10;99.90;;;2.85;100.00;-19823.94;5112819;27;20271;-65
2022/01/15 06:17:41;;;;;;;44.77;27.37;;;2.10;99.90;;;2.79;100.00;-19821.88;5113504;28;20182;-64
2022/01/15 06:20:13;;;;;;;41.57;25.97;;;2.10;99.90;;;2.82;100.00;-19822.91;5112572;28;20220;-64
2022/01/15 06:22:41;;;;;;;38.57;24.27;;;2.10;99.90;;;2.90;100.00;-19825.47;5112645;28;20744;-64
2022/01/15 06:25:11;;;;;;;39.30;25.33;;;2.10;99.90;;;2.84;100.00;-19823.59;5112459;28;20220;-66
2022/01/15 06:27:39;;;;;;;43.23;28.77;;;2.10;99.90;;;2.84;100.00;-19823.41;5112341;28;20229;-64
2022/01/15 06:30:08;;;;;;;38.17;24.43;;;2.10;99.90;;;2.85;100.00;-19823.75;5112609;28;20200;-65
2022/01/15 06:32:37;;;;;;;43.20;23.07;;;2.10;99.90;;;2.87;100.00;-19824.63;5113307;28;20200;-63
2022/01/15 06:35:09;;;;;;;36.40;22.70;;;2.10;99.90;;;2.85;100.00;-19823.75;5112205;28;20312;-62
2022/01/15 06:37:37;;;;;;;37.63;21.73;;;2.10;99.90;;;2.79;100.00;-19821.88;5112412;28;20735;-64
2022/01/15 06:40:07;;;;;;;41.23;24.00;;;2.10;99.90;;;3.16;100.00;-19834.34;5112093;27;20310;-64
2022/01/15 06:42:36;;;;;;;39.63;23.03;;;2.20;99.90;;;3.02;100.00;-19829.56;5112426;28;20220;-65
2022/01/15 06:45:06;;;;;;;41.33;22.33;;;2.20;99.90;;;2.89;100.00;-19825.31;5111993;28;20211;-64
2022/01/15 06:47:34;;;;;;;39.77;21.73;;;2.20;99.90;;;2.90;100.00;-19825.47;5112467;28;20241;-62
2022/01/15 06:50:06;;;;;;;44.63;23.13;;;2.20;99.90;;;2.94;100.00;-19826.84;5111068;28;20233;-63
2022/01/15 06:52:36;;;;;;;42.20;24.07;;;2.20;99.90;;;3.04;100.00;-19830.25;5092444;28;20318;-63
2022/01/15 06:55:08;;;;;;;43.90;24.93;;;2.20;99.90;;;2.95;100.00;-19827.19;5093519;28;20224;-62
2022/01/15 06:57:36;;;;;;;43.87;24.87;;;2.20;99.90;;;3.09;100.00;-19832.13;5112142;28;20226;-63
2022/01/15 07:00:06;;;;;;;43.33;26.73;;;2.30;99.90;;;2.99;100.00;-19828.72;5112085;28;20206;-63
2022/01/15 07:02:34;;;;;;;44.90;27.33;;;2.30;99.90;;;3.05;100.00;-19830.78;5112825;28;20231;-63
2022/01/15 07:05:06;;;;;;;41.43;24.33;;;2.30;99.90;;;3.12;100.00;-19833.00;5111471;27;20260;-63
2022/01/15 07:07:35;;;;;;;42.57;25.27;;;2.40;99.90;;;3.08;100.00;-19831.78;5111490;28;20234;-64
2022/01/15 07:10:03;;;;;;;38.03;22.60;;;2.30;99.90;;;3.13;100.00;-19833.34;5111477;28;20280;-62
2022/01/15 07:12:31;;;;;;;37.20;25.17;;;2.40;99.90;;;3.16;100.00;-19834.34;5111362;28;20303;-63
2022/01/15 07:14:59;;;;;;;44.63;25.67;;;2.30;99.90;;;3.30;100.00;-19839.16;5111770;28;20311;-64
2022/01/15 07:17:27;;;;;;;41.37;25.77;;;2.40;99.90;;;3.25;100.00;-19837.59;5112131;28;20746;-64
2022/01/15 07:19:55;;;;;;;37.40;22.63;;;2.40;99.90;;;3.30;100.00;-19839.16;5111284;28;20600;-63
2022/01/15 07:22:25;;;;;;;36.53;22.23;;;2.50;99.90;;;3.22;100.00;-19836.59;5111320;28;20362;-64
2022/01/15 07:24:53;;;;;;;35.67;23.53;;;2.50;99.90;;;3.17;100.00;-19834.88;5111748;28;20230;-65
2022/01/15 07:27:21;;;;;;;38.20;21.03;;;2.40;99.90;;;3.16;100.00;-19834.34;5111505;28;20226;-63
2022/01/15 07:29:53;;;;;;;38.57;22.33;;;2.40;99.90;;;3.14;100.00;-19833.84;5111402;28;20219;-62
2022/01/15 07:32:21;;;;;;;37.53;22.97;;;2.40;99.90;;;3.26;100.00;-19837.78;5112050;28;20200;-64
2022/01/15 07:34:49;;;;;;;36.30;22.97;;;2.50;99.90;;;3.46;100.00;-19844.78;5111546;28;20309;-65
2022/01/15 07:37:17;;;;;;;40.60;24.87;;;2.50;99.90;;;3.43;100.00;-19843.75;5111166;28;20254;-67
2022/01/15 07:39:46;;;;;;;37.30;22.30;;;2.60;99.90;;;3.43;100.00;-19843.59;5111335;28;20254;-64
2022/01/15 07:42:15;;;;;;;35.97;22.37;;;2.60;99.90;;;3.47;100.00;-19845.13;5111544;28;20311;-63
2022/01/15 07:44:43;;;;;;;35.20;22.10;;;2.60;99.90;;;3.48;100.00;-19845.31;5111483;28;20573;-64
2022/01/15 07:47:12;;;;;;;42.40;25.60;;;2.60;99.90;;;3.44;100.00;-19843.94;5111454;28;20293;-63
2022/01/15 07:49:40;;;;;;;36.13;22.93;;;2.70;99.90;;;3.44;100.00;-19843.94;5111646;28;20255;-65
2022/01/15 07:52:09;;;;;;;37.07;22.07;;;2.70;99.90;;;3.49;100.00;-19845.81;5095392;28;20308;-65
2022/01/15 07:54:37;;;;;;;33.97;20.23;;;2.70;99.90;;;3.51;100.00;-19846.50;5090717;28;20257;-64
2022/01/15 07:57:07;;;;;;;36.37;20.90;;;2.70;99.90;;;3.61;100.00;-19849.75;5090135;28;20692;-63
2022/01/15 07:59:35;;;;;;;33.70;20.20;;;2.80;99.90;;;3.61;100.00;-19849.75;5090275;28;20304;-64
2022/01/15 08:02:04;;;;;;;33.10;20.17;;;2.80;99.90;;;3.59;100.00;-19849.06;5093527;28;20220;-64
2022/01/15 08:04:32;;;;;;;32.57;18.87;;;2.80;99.90;;;3.71;100.00;-19853.16;5095679;28;20226;-64
2022/01/15 08:07:00;;;;;;;31.27;18.47;;;2.90;99.90;;;3.66;100.00;-19851.63;5095508;28;20312;-63
2022/01/15 08:09:28;;;;;;;28.93;18.70;;;2.90;99.90;;;3.73;100.00;-19854.03;5095653;28;20309;-65
2022/01/15 08:11:56;;;;;;;30.90;19.03;;;2.90;99.90;;;3.73;100.00;-19853.84;5095500;28;20283;-64
2022/01/15 08:14:26;;;;;;;32.53;18.93;;;3.00;99.90;;;3.80;100.00;-19856.25;5096403;28;20741;-62
2022/01/15 08:16:54;;;;;;;33.27;18.97;;;3.00;99.90;;;3.83;100.00;-19857.09;5095309;28;20309;-61
2022/01/15 08:19:22;;;;;;;30.27;18.87;;;3.00;99.90;;;3.89;100.00;-19859.31;5095302;28;20250;-62
2022/01/15 08:21:50;;;;;;;29.67;18.20;;;3.10;99.90;;;3.92;100.00;-19860.16;5095441;28;20226;-62
2022/01/15 08:24:18;;;;;;;30.53;18.93;;;3.20;99.90;;;3.98;100.00;-19862.22;5095338;28;20257;-62
2022/01/15 08:26:47;;;;;;;29.70;19.27;;;3.20;99.90;;;4.10;100.00;-19866.31;5095700;28;20606;-62
2022/01/15 08:29:15;;;;;;;27.70;17.30;;;3.20;99.90;;;4.10;100.00;-19866.31;5095294;28;20239;-61
2022/01/15 08:31:44;;;;;;;29.93;18.00;;;3.30;99.90;;;4.20;100.00;-19869.75;5097818;27;20589;-62
2022/01/15 08:34:12;;;;;;;27.07;16.87;;;3.30;99.90;;;4.15;100.00;-19868.03;5135963;27;20244;-61
2022/01/15 08:36:40;;;;;;;30.33;18.33;;;3.30;99.90;;;4.22;100.00;-19870.44;5135808;27;20235;-61
2022/01/15 08:39:09;;;;;;;32.67;19.07;;;3.30;99.90;;;4.29;100.00;-19872.81;5135819;27;20748;-62
2022/01/15 08:41:38;;;;;;;30.13;19.37;;;3.40;99.90;;;4.32;100.00;-19874.03;5136244;27;20292;-61
2022/01/15 08:44:07;;;;;;;30.70;19.53;;;3.40;99.90;;;4.33;100.00;-19874.34;5135725;27;20741;-62
2022/01/15 08:46:35;;;;;;;32.30;20.67;;;3.50;99.90;;;4.34;100.00;-19874.69;5135672;27;20281;-61
2022/01/15 08:49:04;;;;;;;33.73;20.97;;;3.50;99.90;;;4.39;100.00;-19876.41;5136013;27;20249;-62
2022/01/15 08:51:32;;;;;;;30.37;19.90;;;3.50;99.90;;;4.36;100.00;-19875.38;5124650;27;20312;-62
2022/01/15 08:54:00;;;;;;;30.97;19.60;;;3.50;99.90;;;4.41;100.00;-19876.94;5115108;28;20306;-62
2022/01/15 08:56:28;;;;;;;31.33;19.00;;;3.60;99.90;;;4.43;100.00;-19877.78;5115397;28;20222;-61
2022/01/15 08:58:56;;;;;;;29.23;17.93;;;3.60;99.90;;;4.42;100.00;-19877.25;5114943;28;20692;-61
2022/01/15 09:01:24;;;;;;;34.33;18.70;;;3.60;99.90;;;4.47;100.00;-19879.16;5115128;28;20310;-62
2022/01/15 09:03:55;;;;;;;30.60;18.37;;;3.60;99.90;;;4.53;100.00;-19881.19;5114550;28;20566;-63
2022/01/15 09:06:27;;;;;;;26.23;17.23;;;3.70;99.90;;;4.55;100.00;-19881.88;5115190;28;20298;-62
2022/01/15 09:08:55;;;;;;;28.70;18.37;;;3.70;99.90;;;4.58;100.00;-19882.75;5114658;28;20187;-62
2022/01/15 09:11:24;;;;;;;27.43;17.87;;;3.70;99.90;;;4.61;100.00;-19883.94;5115090;28;20199;-62
2022/01/15 09:13:52;;;;;;;30.73;19.73;;;3.80;99.90;;;4.67;100.00;-19885.81;5114150;28;20223;-61
2022/01/15 09:16:19;;;;;;;30.07;18.23;;;3.80;99.90;;;4.70;100.00;-19887.00;5114709;28;20230;-61
2022/01/15 09:18:48;;;;;;;26.77;16.77;;;3.80;99.90;;;4.72;100.00;-19887.69;5114171;27;20218;-61
2022/01/15 09:21:17;;;;;;;29.10;18.57;;;3.80;99.90;;;4.79;100.00;-19890.09;5114211;27;20227;-62
2022/01/15 09:23:46;;;;;;;28.33;17.17;;;3.90;99.90;;;4.85;100.00;-19892.13;5114402;28;20286;-62
2022/01/15 09:26:21;;;;;;;25.63;16.70;;;4.00;99.90;;;4.91;100.00;-19894.00;5113635;27;20246;-62
2022/01/15 09:31:36;;;;;;;25.87;16.30;;;4.00;99.90;;;4.95;100.00;-19895.38;5093400;28;20227;-61
2022/01/15 09:34:04;;;;;;;26.83;17.63;;;4.00;99.90;;;4.98;100.00;-19896.59;5093445;28;20243;-61
2022/01/15 09:36:32;;;;;;;25.60;17.33;;;4.10;99.90;;;4.95;100.00;-19895.38;5093844;28;20282;-62
2022/01/15 09:39:02;;;;;;;26.40;17.30;;;4.10;99.90;;;4.98;100.00;-19896.59;5093900;28;20299;-63
2022/01/15 09:41:32;;;;;;;26.90;18.10;;;4.10;99.90;;;5.02;100.00;-19897.78;5093820;28;20211;-61
2022/01/15 09:44:01;;;;;;;27.53;17.80;;;4.20;99.90;;;5.04;100.00;-19898.28;5093546;28;20311;-62
2022/01/15 09:46:32;;;;;;;29.03;17.53;;;4.20;99.90;;;5.10;100.00;-19900.50;5093967;28;20224;-62
2022/01/15 09:49:02;;;;;;;25.10;16.00;;;4.20;99.90;;;5.17;100.00;-19902.91;5093575;28;20223;-61
2022/01/15 09:51:31;;;;;;;25.10;16.33;;;4.20;99.90;;;5.29;100.00;-19906.84;5092972;28;20216;-60
2022/01/15 09:54:00;;;;;;;24.90;16.23;;;4.30;99.90;;;5.33;100.00;-19908.38;5092525;28;20654;-62
2022/01/15 09:56:30;;;;;;;24.10;15.97;;;4.40;99.90;;;5.34;100.00;-19908.53;5108457;28;20360;-61
2022/01/15 09:59:00;;;;;;;24.60;16.63;;;4.40;99.90;;;5.29;100.00;-19906.84;5113749;28;20318;-61
2022/01/15 10:01:28;;;;;;;23.67;16.13;;;4.40;99.90;;;5.36;100.00;-19909.22;5113871;28;20257;-60
2022/01/15 10:03:57;;;;;;;24.30;15.83;;;4.40;99.90;;;5.42;100.00;-19911.44;5113509;28;20560;-62
2022/01/15 10:06:26;;;;;;;22.37;16.07;;;4.50;99.90;;;5.37;100.00;-19909.56;5113728;28;20305;-61
2022/01/15 10:09:04;;;;;;;24.40;15.57;;;4.50;99.90;;;5.45;100.00;-19912.47;5113770;28;20286;-61
2022/01/15 10:11:52;;;;;;;23.47;15.13;;;4.50;99.90;;;5.45;100.00;-19912.31;5111703;28;20260;-61
2022/01/15 10:14:28;;;;;;;23.90;15.83;;;4.50;99.90;;;5.45;100.00;-19912.47;5113777;28;20280;-61
2022/01/15 10:16:59;;;;;;;23.80;15.03;;;4.60;99.90;;;5.48;100.00;-19913.50;5112300;27;20309;-60
2022/01/15 10:19:29;;;;;;;23.50;16.30;;;4.60;99.90;;;5.56;100.00;-19916.06;5120306;27;20309;-55
2022/01/15 10:22:11;;;;;;;23.40;15.73;;;4.60;99.90;;;5.45;100.00;-19912.31;5112841;28;20233;-55
2022/01/15 10:24:41;;;;;;;24.07;15.60;;;4.60;99.90;;;5.77;100.00;-19923.41;5111671;28;20222;-54
2022/01/15 10:27:24;;;;;;;23.03;16.33;;;4.70;99.90;;;5.67;100.00;-19919.81;5113219;28;20183;-57
2022/01/15 10:29:59;;;;;;;22.53;15.17;;;4.70;99.90;;;5.61;100.00;-19917.94;5113567;28;20234;-59